Braeside, Canada
Current Conditions -  °F | °C
As of 12:00 AM on Tuesday 23 Dec 2014 (Local Time) from CYOW Reporting Station
Overcast Overcast  
Wind Chill:   Ceiling: 3800
Heat Index: 19°   Visibility: 8mi
Dew Point: 18°   Wind: 9mph
Humidity: 93%   Direction: 60°ENE
Pressure: 30.22"   Gusts: NA
Location:  45.47°N, 76.4°W
Report Text: CYOW 230500Z 06008KT 8SM SCT008 OVC038 M07/M08 A3022 RMK SF3SC5 SLP240
Loading
Personal Weather Stations






























Interactive Weather Map New forecast layout! Learn more

10-Day Weather Forecast

Advertisements
Track Severe Weather on mobile